Time;durP1;ratioP1;P1;durP2;ratioP2;P2;SDS_P1;SDS_P2;PMS_P1;PMS_P2;Temp;Humidity;BMP_temperature;BMP_pressure;BME280_temperature;BME280_humidity;BME280_pressure;Samples;Min_cycle;Max_cycle;Signal;HPM_P1;HPM_P2
2024/02/06 00:01:29;;;;;;;20.50;5.32;;;11.30;99.70;;;;;;5032674;28;20021;-75
2024/02/06 00:03:55;;;;;;;18.65;4.70;;;11.30;99.60;;;;;;5036868;28;20813;-75
2024/02/06 00:06:21;;;;;;;20.48;4.78;;;11.30;99.70;;;;;;5029142;28;20038;-75
2024/02/06 00:08:47;;;;;;;26.45;5.18;;;11.30;99.60;;;;;;5040916;28;20032;-75
2024/02/06 00:11:13;;;;;;;19.45;4.10;;;11.30;99.50;;;;;;5016603;28;20493;-75
2024/02/06 00:13:39;;;;;;;17.30;4.90;;;11.40;99.60;;;;;;5040075;28;20041;-75
2024/02/06 00:16:12;;;;;;;16.85;3.80;;;11.40;99.50;;;;;;5040707;28;20045;-75
2024/02/06 00:18:38;;;;;;;17.92;4.35;;;11.40;99.40;;;;;;5028751;28;20512;-75
2024/02/06 00:21:04;;;;;;;16.27;5.22;;;11.40;99.30;;;;;;5028629;28;20025;-75
2024/02/06 00:23:30;;;;;;;20.55;4.53;;;11.50;99.30;;;;;;5028458;28;20041;-75
2024/02/06 00:25:55;;;;;;;13.77;4.50;;;11.40;99.30;;;;;;5028080;28;20112;-75
2024/02/06 00:28:22;;;;;;;22.35;4.55;;;11.50;99.30;;;;;;5028070;28;20117;-75
2024/02/06 00:30:47;;;;;;;18.25;4.72;;;11.50;99.20;;;;;;5029713;28;20060;-75
2024/02/06 00:33:14;;;;;;;15.77;4.47;;;11.40;99.30;;;;;;5027413;28;20384;-75
2024/02/06 00:35:40;;;;;;;18.05;4.55;;;11.50;99.20;;;;;;5028903;28;20045;-75
2024/02/06 00:38:06;;;;;;;24.25;5.72;;;11.50;99.20;;;;;;5028639;28;20034;-75
2024/02/06 00:40:32;;;;;;;17.85;4.93;;;11.50;99.10;;;;;;5029083;28;20036;-75
2024/02/06 00:42:58;;;;;;;21.10;4.20;;;11.40;99.30;;;;;;5024321;28;20537;-75
2024/02/06 00:45:23;;;;;;;16.85;4.25;;;11.40;99.40;;;;;;5029126;28;20033;-75
2024/02/06 00:47:49;;;;;;;18.65;5.63;;;11.40;99.40;;;;;;5016161;28;20091;-75
2024/02/06 00:50:16;;;;;;;24.95;5.20;;;11.40;99.50;;;;;;5027834;28;20546;-75
2024/02/06 00:52:42;;;;;;;19.40;4.95;;;11.40;99.50;;;;;;5031201;28;20479;-75
2024/02/06 00:55:08;;;;;;;23.00;5.93;;;11.30;99.50;;;;;;5025589;28;20136;-75
2024/02/06 00:57:33;;;;;;;12.70;4.18;;;11.40;99.60;;;;;;5025084;28;20077;-75
2024/02/06 00:59:59;;;;;;;19.08;4.72;;;11.30;99.70;;;;;;5028677;28;20102;-75
2024/02/06 01:02:25;;;;;;;20.33;4.65;;;11.40;99.60;;;;;;5028389;28;20481;-75
2024/02/06 01:04:55;;;;;;;16.52;3.60;;;11.30;99.60;;;;;;5020228;28;20470;-75
2024/02/06 01:07:21;;;;;;;17.15;5.22;;;11.30;99.70;;;;;;5024811;28;20037;-75
2024/02/06 01:09:47;;;;;;;16.90;4.25;;;11.40;99.50;;;;;;5027236;28;20064;-75
2024/02/06 01:12:13;;;;;;;23.38;5.72;;;11.40;99.60;;;;;;5036910;28;20040;-75
2024/02/06 01:14:39;;;;;;;21.00;4.40;;;11.30;99.70;;;;;;5036999;28;20417;-75
2024/02/06 01:17:05;;;;;;;22.67;5.40;;;11.40;99.80;;;;;;5026318;28;20095;-75
2024/02/06 01:19:33;;;;;;;23.27;5.85;;;11.40;99.70;;;;;;5040253;28;20084;-75
2024/02/06 01:21:59;;;;;;;27.98;5.60;;;11.40;99.60;;;;;;5028663;28;20037;-75
2024/02/06 01:24:25;;;;;;;25.80;5.18;;;11.40;99.60;;;;;;5024261;28;20030;-75
2024/02/06 01:26:50;;;;;;;19.65;5.55;;;11.40;99.60;;;;;;5034965;28;20048;-75
2024/02/06 01:29:16;;;;;;;22.38;5.40;;;11.40;99.60;;;;;;5030284;28;20060;-75
2024/02/06 01:31:43;;;;;;;19.63;5.63;;;11.40;99.60;;;;;;5031100;28;20075;-75
2024/02/06 01:34:12;;;;;;;26.83;6.00;;;11.40;99.50;;;;;;5032170;28;20037;-75
2024/02/06 01:36:37;;;;;;;18.30;5.10;;;11.50;99.50;;;;;;5030131;28;20041;-75
2024/02/06 01:39:04;;;;;;;25.92;4.82;;;11.40;99.60;;;;;;5032656;28;20078;-75
2024/02/06 01:41:29;;;;;;;18.02;5.22;;;11.40;99.70;;;;;;5032996;28;20060;-75
2024/02/06 01:43:55;;;;;;;12.68;4.05;;;11.50;99.70;;;;;;5047078;28;20072;-75
2024/02/06 01:46:21;;;;;;;18.55;5.05;;;11.50;99.60;;;;;;5045957;28;20066;-75
2024/02/06 01:48:47;;;;;;;21.40;6.15;;;11.50;99.50;;;;;;5041601;28;20040;-75
2024/02/06 01:51:18;;;;;;;17.02;3.95;;;11.50;99.50;;;;;;5045945;28;20040;-75
2024/02/06 01:53:44;;;;;;;23.13;5.05;;;11.50;99.60;;;;;;5032001;28;20426;-74
2024/02/06 01:56:13;;;;;;;15.82;5.25;;;11.50;99.60;;;;;;5034276;28;20038;-74
2024/02/06 01:58:39;;;;;;;17.17;5.13;;;11.50;99.60;;;;;;5037647;28;20080;-74
2024/02/06 02:01:05;;;;;;;25.67;5.80;;;11.40;99.60;;;;;;5033902;28;20029;-74
2024/02/06 02:03:33;;;;;;;16.98;4.68;;;11.40;99.70;;;;;;5025166;28;20032;-74
2024/02/06 02:05:59;;;;;;;22.92;5.68;;;11.50;99.80;;;;;;5039165;28;20029;-74
2024/02/06 02:08:31;;;;;;;18.70;4.85;;;11.40;99.70;;;;;;5030377;28;20079;-75
2024/02/06 02:10:57;;;;;;;20.10;5.43;;;11.40;99.80;;;;;;5032387;28;20038;-75
2024/02/06 02:13:23;;;;;;;22.52;5.78;;;11.40;99.80;;;;;;5027522;28;20044;-75
2024/02/06 02:15:49;;;;;;;28.50;5.22;;;11.50;99.70;;;;;;5029221;28;20034;-74
2024/02/06 02:18:15;;;;;;;28.25;5.88;;;11.50;99.80;;;;;;5031401;28;20041;-75
2024/02/06 02:20:41;;;;;;;15.77;4.50;;;11.40;99.60;;;;;;5031377;28;20044;-75
2024/02/06 02:23:08;;;;;;;21.38;5.43;;;11.50;99.70;;;;;;5045746;28;20029;-75
2024/02/06 02:25:33;;;;;;;18.77;4.82;;;11.50;99.70;;;;;;5032041;28;20029;-75
2024/02/06 02:28:00;;;;;;;22.10;4.80;;;11.50;99.60;;;;;;5029278;28;20573;-75
2024/02/06 02:30:27;;;;;;;28.23;4.68;;;11.50;99.70;;;;;;5032090;28;20148;-75
2024/02/06 02:32:54;;;;;;;20.38;4.88;;;11.60;99.70;;;;;;5030208;28;20026;-75
2024/02/06 02:35:31;;;;;;;23.90;5.53;;;11.50;99.70;;;;;;5029400;28;20377;-75
2024/02/06 02:37:56;;;;;;;24.73;5.90;;;11.40;99.80;;;;;;5043874;28;20103;-75
2024/02/06 02:40:22;;;;;;;22.70;5.25;;;11.40;99.80;;;;;;5041622;28;20025;-75
2024/02/06 02:42:48;;;;;;;25.25;6.70;;;11.50;99.80;;;;;;5020516;28;20041;-75
2024/02/06 02:45:13;;;;;;;31.27;6.25;;;11.40;99.90;;;;;;5025818;28;20034;-75
2024/02/06 02:47:39;;;;;;;27.42;5.95;;;11.50;99.90;;;;;;5040890;28;20040;-74
2024/02/06 02:50:05;;;;;;;26.30;5.55;;;11.40;99.90;;;;;;5029789;28;20136;-75
2024/02/06 02:52:30;;;;;;;22.38;5.57;;;11.40;99.90;;;;;;5021932;28;20079;-75
2024/02/06 02:54:56;;;;;;;26.63;5.85;;;11.50;99.90;;;;;;5027311;28;20053;-75
2024/02/06 02:57:22;;;;;;;20.65;6.00;;;11.40;99.90;;;;;;5036635;28;20037;-75
2024/02/06 02:59:47;;;;;;;25.63;5.10;;;11.50;99.90;;;;;;5037749;28;20154;-75
2024/02/06 03:02:13;;;;;;;22.42;5.30;;;11.50;99.90;;;;;;5029067;28;20033;-75
2024/02/06 03:04:39;;;;;;;28.27;6.13;;;11.50;99.90;;;;;;5032727;28;20057;-75
2024/02/06 03:07:04;;;;;;;21.92;5.32;;;11.60;99.80;;;;;;5029262;28;20167;-75
2024/02/06 03:09:30;;;;;;;22.83;5.35;;;11.50;99.90;;;;;;5030375;28;20048;-75
2024/02/06 03:11:56;;;;;;;25.98;6.50;;;11.50;99.90;;;;;;5030483;28;20095;-75
2024/02/06 03:14:21;;;;;;;21.42;5.70;;;11.50;99.90;;;;;;5044440;28;20119;-75
2024/02/06 03:16:47;;;;;;;29.10;4.88;;;11.50;99.90;;;;;;5041657;28;20041;-75
2024/02/06 03:19:13;;;;;;;29.88;6.32;;;11.50;99.90;;;;;;5044212;28;20030;-75
2024/02/06 03:21:38;;;;;;;25.05;6.72;;;11.50;99.90;;;;;;5041853;28;20554;-75
2024/02/06 03:24:05;;;;;;;22.92;5.43;;;11.40;99.90;;;;;;5043862;28;20036;-75
2024/02/06 03:26:30;;;;;;;24.48;5.15;;;11.40;99.90;;;;;;5048493;28;20064;-75
2024/02/06 03:28:56;;;;;;;32.17;6.60;;;11.50;99.90;;;;;;5037439;28;20061;-75
2024/02/06 03:31:22;;;;;;;26.25;5.63;;;11.60;99.90;;;;;;5035038;28;20389;-74
2024/02/06 03:33:48;;;;;;;19.55;5.07;;;11.50;99.90;;;;;;5036375;28;20438;-75
2024/02/06 03:36:14;;;;;;;22.13;5.35;;;11.50;99.90;;;;;;5034217;28;20128;-75
2024/02/06 03:38:40;;;;;;;21.98;5.82;;;11.50;99.90;;;;;;5041058;28;20033;-75
2024/02/06 03:41:05;;;;;;;27.13;6.00;;;11.50;99.90;;;;;;5028152;28;20033;-75
2024/02/06 03:43:31;;;;;;;20.85;6.05;;;11.50;99.90;;;;;;5032772;28;20039;-75
2024/02/06 03:45:57;;;;;;;31.25;6.10;;;11.50;99.90;;;;;;5029370;28;20048;-75
2024/02/06 03:48:22;;;;;;;25.73;5.57;;;11.50;99.90;;;;;;5042683;28;20029;-75
2024/02/06 03:50:50;;;;;;;27.27;6.05;;;11.50;99.90;;;;;;5033222;28;20037;-75
2024/02/06 03:53:16;;;;;;;25.67;5.32;;;11.50;99.90;;;;;;5026509;28;20587;-75
2024/02/06 03:55:42;;;;;;;24.23;5.88;;;11.50;99.90;;;;;;5035205;28;20479;-75
2024/02/06 03:58:09;;;;;;;25.95;6.15;;;11.40;99.90;;;;;;5032461;28;20108;-75
2024/02/06 04:00:35;;;;;;;21.23;5.80;;;11.40;99.90;;;;;;5031580;28;20034;-75
2024/02/06 04:03:01;;;;;;;20.25;5.15;;;11.50;99.90;;;;;;5021981;28;20096;-75
2024/02/06 04:05:27;;;;;;;27.25;6.22;;;11.50;99.90;;;;;;5044366;28;20029;-75
2024/02/06 04:07:53;;;;;;;24.08;5.32;;;11.40;99.90;;;;;;5027871;28;20142;-75
2024/02/06 04:10:18;;;;;;;26.25;6.82;;;11.40;99.90;;;;;;5031352;28;20378;-74
2024/02/06 04:12:44;;;;;;;29.42;6.80;;;11.40;99.90;;;;;;5028203;28;20112;-75
2024/02/06 04:15:10;;;;;;;26.13;5.60;;;11.30;99.90;;;;;;5028737;28;20424;-76
2024/02/06 04:17:36;;;;;;;21.83;6.05;;;11.50;99.90;;;;;;5028607;28;20080;-76
2024/02/06 04:20:02;;;;;;;24.67;5.40;;;11.50;99.90;;;;;;5040867;28;20047;-75
2024/02/06 04:22:27;;;;;;;23.08;4.68;;;11.50;99.90;;;;;;5030822;28;20037;-75
2024/02/06 04:24:53;;;;;;;21.50;5.18;;;11.50;99.90;;;;;;5034878;28;20216;-75
2024/02/06 04:27:18;;;;;;;21.80;5.07;;;11.60;99.90;;;;;;5038780;28;20087;-75
2024/02/06 04:29:44;;;;;;;19.20;5.13;;;11.60;99.80;;;;;;5043678;28;20671;-75
2024/02/06 04:32:10;;;;;;;17.65;4.13;;;11.60;99.70;;;;;;5047489;28;20053;-75
2024/02/06 04:34:35;;;;;;;25.05;5.28;;;11.60;99.70;;;;;;5029007;28;20076;-75
2024/02/06 04:37:01;;;;;;;20.17;4.95;;;11.60;99.80;;;;;;5046368;28;20076;-75
2024/02/06 04:39:26;;;;;;;24.77;5.82;;;11.70;99.80;;;;;;5042075;28;20124;-75
2024/02/06 04:41:52;;;;;;;21.90;4.35;;;11.60;99.60;;;;;;5028864;28;20076;-75
2024/02/06 04:44:18;;;;;;;20.75;5.07;;;11.70;99.60;;;;;;5037887;28;20538;-75
2024/02/06 04:46:44;;;;;;;24.83;4.32;;;11.70;99.60;;;;;;5036717;28;20063;-75
2024/02/06 04:49:10;;;;;;;26.30;5.97;;;11.70;99.70;;;;;;5016015;28;20037;-75
2024/02/06 04:51:36;;;;;;;31.10;5.68;;;11.60;99.60;;;;;;5020620;28;20065;-74
2024/02/06 04:54:03;;;;;;;24.67;4.90;;;11.60;99.70;;;;;;5029179;28;20037;-75
2024/02/06 04:56:29;;;;;;;28.60;6.32;;;11.60;99.80;;;;;;5044566;28;20045;-75
2024/02/06 04:58:54;;;;;;;26.30;5.32;;;11.50;99.90;;;;;;5031860;28;20048;-75
2024/02/06 05:01:20;;;;;;;22.05;5.20;;;11.50;99.90;;;;;;5031312;28;20064;-75
2024/02/06 05:03:46;;;;;;;22.58;4.63;;;11.50;99.90;;;;;;5035437;28;20033;-75
2024/02/06 05:06:12;;;;;;;22.98;4.80;;;11.50;99.90;;;;;;5029146;28;20032;-75
2024/02/06 05:08:38;;;;;;;24.23;5.45;;;11.60;99.90;;;;;;5027549;28;20108;-75
2024/02/06 05:11:07;;;;;;;21.63;5.13;;;11.60;99.90;;;;;;5029056;28;20761;-75
2024/02/06 05:13:33;;;;;;;24.67;4.30;;;11.60;99.90;;;;;;5033089;28;20026;-75
2024/02/06 05:16:00;;;;;;;15.90;3.90;;;11.60;99.90;;;;;;5029669;28;20040;-75
2024/02/06 05:18:25;;;;;;;26.85;5.72;;;11.70;99.90;;;;;;5038923;28;20038;-75
2024/02/06 05:20:51;;;;;;;28.85;5.47;;;11.70;99.90;;;;;;5024825;28;20021;-75
2024/02/06 05:23:18;;;;;;;27.10;4.95;;;11.70;99.90;;;;;;5027139;28;20392;-75
2024/02/06 05:25:44;;;;;;;23.25;4.82;;;11.80;99.90;;;;;;5029796;28;20045;-75
2024/02/06 05:28:10;;;;;;;17.05;4.03;;;11.80;99.80;;;;;;5034638;28;20033;-75
2024/02/06 05:30:37;;;;;;;32.13;5.75;;;11.90;99.80;;;;;;5019423;28;20029;-75
2024/02/06 05:33:03;;;;;;;20.35;4.38;;;11.90;99.70;;;;;;5027699;28;20037;-75
2024/02/06 05:35:29;;;;;;;25.85;4.68;;;11.90;99.70;;;;;;5028577;28;20101;-75
2024/02/06 05:37:58;;;;;;;27.95;5.35;;;11.90;99.70;;;;;;5037883;28;20041;-75
2024/02/06 05:40:24;;;;;;;21.85;5.88;;;11.90;99.70;;;;;;5028567;28;20025;-77
2024/02/06 05:42:49;;;;;;;22.42;4.70;;;11.90;99.70;;;;;;5028017;28;20029;-75
2024/02/06 05:45:15;;;;;;;37.10;5.70;;;11.90;99.80;;;;;;5027632;28;20026;-75
2024/02/06 05:47:41;;;;;;;26.70;5.20;;;11.90;99.90;;;;;;5027567;28;20037;-76
2024/02/06 05:50:09;;;;;;;30.25;5.30;;;11.80;99.80;;;;;;5028140;28;20025;-76
2024/02/06 05:52:35;;;;;;;27.40;5.15;;;11.90;99.90;;;;;;5026408;28;20076;-75
2024/02/06 05:55:01;;;;;;;27.42;5.15;;;11.90;99.90;;;;;;5027339;28;20085;-75
2024/02/06 05:57:27;;;;;;;18.02;4.75;;;11.90;99.90;;;;;;5036122;28;20106;-75
2024/02/06 05:59:53;;;;;;;13.98;4.03;;;11.90;99.90;;;;;;5034847;28;20028;-76
2024/02/06 06:02:18;;;;;;;16.98;4.00;;;11.80;99.90;;;;;;5027461;28;20037;-76
2024/02/06 06:04:46;;;;;;;24.17;3.83;;;11.80;99.90;;;;;;5040028;28;20033;-76
2024/02/06 06:07:12;;;;;;;25.98;5.82;;;11.90;99.90;;;;;;5025431;28;20562;-76
2024/02/06 06:09:41;;;;;;;15.60;3.85;;;11.90;99.80;;;;;;5027101;28;20025;-75
2024/02/06 06:12:06;;;;;;;20.40;4.95;;;12.00;99.90;;;;;;5023646;28;20497;-75
2024/02/06 06:14:32;;;;;;;18.85;4.00;;;11.90;99.80;;;;;;5028439;28;20029;-75
2024/02/06 06:16:58;;;;;;;15.93;4.00;;;11.90;99.80;;;;;;5025814;28;20041;-75
2024/02/06 06:19:23;;;;;;;24.35;4.93;;;11.90;99.80;;;;;;5033152;28;20079;-76
2024/02/06 06:21:49;;;;;;;28.00;5.75;;;11.90;99.80;;;;;;5030307;28;20041;-76
2024/02/06 06:24:15;;;;;;;25.42;5.60;;;11.90;99.80;;;;;;5030438;28;20117;-76
2024/02/06 06:26:41;;;;;;;17.83;3.78;;;12.00;99.80;;;;;;5025537;28;20046;-75
2024/02/06 06:29:08;;;;;;;20.42;4.68;;;11.90;99.80;;;;;;5029642;28;20033;-75
2024/02/06 06:31:34;;;;;;;16.95;5.22;;;11.90;99.70;;;;;;5037357;28;20412;-76
2024/02/06 06:34:00;;;;;;;20.10;4.47;;;11.90;99.80;;;;;;5033246;28;20037;-74
2024/02/06 06:36:26;;;;;;;23.17;5.32;;;11.90;99.80;;;;;;5046746;28;20033;-75
2024/02/06 06:38:54;;;;;;;22.45;5.03;;;11.90;99.80;;;;;;5049177;28;20037;-75
2024/02/06 06:41:24;;;;;;;25.67;5.00;;;12.00;99.70;;;;;;5033816;28;20029;-75
2024/02/06 06:43:50;;;;;;;25.25;4.82;;;11.90;99.80;;;;;;5044592;28;20037;-75
2024/02/06 06:46:15;;;;;;;15.85;3.97;;;11.90;99.80;;;;;;5042951;28;20059;-75
2024/02/06 06:48:41;;;;;;;27.13;5.25;;;12.00;99.90;;;;;;5030046;28;20421;-75
2024/02/06 06:51:06;;;;;;;21.70;4.03;;;12.00;99.80;;;;;;5032297;28;20084;-74
2024/02/06 06:53:32;;;;;;;22.38;5.13;;;12.00;99.80;;;;;;5034399;28;20026;-78
2024/02/06 06:55:58;;;;;;;22.63;4.90;;;12.00;99.70;;;;;;5037044;28;20477;-75
2024/02/06 06:58:23;;;;;;;24.02;5.20;;;11.90;99.80;;;;;;5024414;28;20041;-75
2024/02/06 07:00:50;;;;;;;18.98;4.55;;;12.00;99.90;;;;;;5029941;28;20032;-76
2024/02/06 07:03:16;;;;;;;19.00;4.78;;;12.00;99.90;;;;;;5029085;28;20284;-76
2024/02/06 07:05:42;;;;;;;20.75;5.13;;;12.00;99.90;;;;;;5028317;28;20057;-76
2024/02/06 07:08:08;;;;;;;22.77;4.93;;;12.00;99.90;;;;;;5023465;28;20069;-76
2024/02/06 07:10:33;;;;;;;27.25;7.47;;;12.00;99.90;;;;;;5033087;28;20037;-76
2024/02/06 07:12:59;;;;;;;17.33;5.35;;;12.00;99.90;;;;;;5030394;28;20025;-76
2024/02/06 07:15:25;;;;;;;21.63;4.65;;;12.00;99.90;;;;;;5030342;28;20409;-76
2024/02/06 07:17:51;;;;;;;24.52;5.15;;;12.10;99.90;;;;;;5029453;28;21049;-76
2024/02/06 07:20:16;;;;;;;17.70;3.90;;;12.10;99.90;;;;;;5031519;28;20566;-76
2024/02/06 07:22:42;;;;;;;28.13;4.90;;;12.10;99.90;;;;;;5029640;28;20030;-78
2024/02/06 07:25:09;;;;;;;20.95;4.55;;;12.10;99.90;;;;;;5033713;28;20033;-76
2024/02/06 07:27:35;;;;;;;26.52;5.55;;;12.10;99.90;;;;;;5038848;28;20503;-77
2024/02/06 07:30:04;;;;;;;26.30;6.10;;;12.00;99.90;;;;;;5030415;28;20025;-75
2024/02/06 07:32:30;;;;;;;20.85;5.45;;;12.00;99.90;;;;;;5025481;28;20033;-77
2024/02/06 07:34:56;;;;;;;25.80;5.00;;;12.00;99.90;;;;;;5029354;28;20033;-77
2024/02/06 07:37:22;;;;;;;24.20;5.53;;;12.00;99.90;;;;;;5029348;28;20048;-77
2024/02/06 07:39:48;;;;;;;29.33;6.40;;;11.90;99.90;;;;;;5029863;28;20034;-77
2024/02/06 07:42:13;;;;;;;23.67;4.93;;;12.00;99.90;;;;;;5024421;28;20041;-77
2024/02/06 07:44:39;;;;;;;21.33;4.53;;;12.00;99.90;;;;;;5031964;28;20033;-77
2024/02/06 07:47:05;;;;;;;22.30;4.88;;;12.00;99.90;;;;;;5030406;28;20048;-77
2024/02/06 07:49:30;;;;;;;20.50;3.80;;;12.00;99.90;;;;;;5033600;28;20033;-77
2024/02/06 07:51:56;;;;;;;22.05;6.00;;;12.10;99.90;;;;;;5026880;28;20041;-77
2024/02/06 07:54:22;;;;;;;20.20;4.95;;;12.00;99.90;;;;;;5029944;28;20041;-77
2024/02/06 07:56:48;;;;;;;24.83;5.65;;;12.00;99.90;;;;;;5032723;28;20044;-78
2024/02/06 07:59:15;;;;;;;21.15;5.47;;;11.90;99.90;;;;;;5032133;28;20071;-78
2024/02/06 08:01:41;;;;;;;19.10;4.32;;;12.00;99.90;;;;;;5036576;28;20044;-80
2024/02/06 08:04:07;;;;;;;27.98;4.43;;;11.90;99.90;;;;;;5027201;28;20025;-76
2024/02/06 08:06:33;;;;;;;24.45;5.40;;;12.00;99.90;;;;;;5042014;28;20044;-77
2024/02/06 08:08:59;;;;;;;21.52;4.35;;;12.00;99.90;;;;;;5034625;28;20033;-78
2024/02/06 08:11:25;;;;;;;26.45;5.05;;;11.90;99.90;;;;;;5036153;28;20538;-77
2024/02/06 08:13:51;;;;;;;16.75;4.50;;;12.00;99.90;;;;;;5033332;28;20029;-77
2024/02/06 08:16:17;;;;;;;22.02;5.15;;;12.10;99.90;;;;;;5031482;28;20411;-77
2024/02/06 08:18:43;;;;;;;18.98;4.25;;;12.00;99.90;;;;;;5029765;28;20044;-78
2024/02/06 08:21:09;;;;;;;21.50;4.00;;;12.10;99.90;;;;;;5031575;28;20021;-78
2024/02/06 08:23:34;;;;;;;17.98;4.43;;;12.00;99.90;;;;;;5038551;28;20122;-78
2024/02/06 08:26:00;;;;;;;11.00;3.40;;;12.10;99.90;;;;;;5030821;28;20087;-77
2024/02/06 08:28:26;;;;;;;19.25;4.20;;;12.10;99.90;;;;;;5039706;28;20053;-77
2024/02/06 08:30:51;;;;;;;17.75;4.45;;;12.10;99.90;;;;;;5039760;28;20026;-77
2024/02/06 08:33:17;;;;;;;23.98;4.90;;;12.10;99.90;;;;;;5037611;28;20043;-78
2024/02/06 08:35:43;;;;;;;20.73;4.03;;;12.10;99.90;;;;;;5020441;28;20035;-77
2024/02/06 08:38:09;;;;;;;12.98;3.97;;;12.00;99.90;;;;;;5036214;28;20040;-77
2024/02/06 08:40:35;;;;;;;21.50;5.20;;;12.00;99.90;;;;;;5046359;28;20029;-78
2024/02/06 08:43:01;;;;;;;36.38;5.35;;;12.00;99.90;;;;;;5048224;28;20079;-77
2024/02/06 08:45:27;;;;;;;22.83;5.40;;;12.00;99.90;;;;;;5042850;28;20511;-77
2024/02/06 08:47:52;;;;;;;23.70;5.82;;;12.00;99.90;;;;;;5038223;28;20029;-77
2024/02/06 08:50:18;;;;;;;28.75;5.20;;;12.00;99.90;;;;;;5042057;28;20033;-77
2024/02/06 08:52:47;;;;;;;16.42;4.07;;;12.00;99.90;;;;;;5035933;28;20037;-77
2024/02/06 08:55:12;;;;;;;15.05;3.90;;;12.00;99.90;;;;;;5023902;28;20129;-77
2024/02/06 08:57:38;;;;;;;17.77;4.93;;;12.00;99.90;;;;;;5028831;28;20537;-77
2024/02/06 09:00:04;;;;;;;18.23;4.53;;;11.90;99.90;;;;;;5032928;28;20041;-77
2024/02/06 09:02:30;;;;;;;22.58;5.45;;;11.90;99.90;;;;;;5036914;28;20496;-77
2024/02/06 09:04:56;;;;;;;22.98;4.90;;;11.90;99.90;;;;;;5029425;28;20095;-77
2024/02/06 09:07:25;;;;;;;20.65;4.60;;;11.90;99.90;;;;;;5040113;28;20476;-77
2024/02/06 09:09:54;;;;;;;26.15;4.60;;;12.00;99.90;;;;;;5025869;28;20046;-77
2024/02/06 09:12:20;;;;;;;19.60;4.35;;;12.00;99.90;;;;;;5028145;28;20374;-76
2024/02/06 09:14:48;;;;;;;20.38;4.28;;;11.90;99.90;;;;;;5026936;28;20059;-75
2024/02/06 09:17:14;;;;;;;16.52;3.67;;;12.00;99.90;;;;;;5028161;28;20127;-77
2024/02/06 09:19:40;;;;;;;23.88;4.72;;;11.90;99.90;;;;;;5027055;28;20458;-77
2024/02/06 09:22:06;;;;;;;24.50;4.90;;;12.00;99.90;;;;;;5033404;28;20035;-77
2024/02/06 09:24:31;;;;;;;22.90;4.63;;;11.90;99.90;;;;;;5028983;28;20112;-78
2024/02/06 09:26:57;;;;;;;25.63;5.00;;;11.90;99.90;;;;;;5039855;28;20476;-78
2024/02/06 09:29:23;;;;;;;29.45;5.63;;;12.00;99.90;;;;;;5036567;28;20037;-77
2024/02/06 09:31:49;;;;;;;25.75;5.03;;;11.90;99.90;;;;;;5036183;28;20489;-77
2024/02/06 09:34:15;;;;;;;30.35;5.75;;;12.00;99.90;;;;;;5035907;28;20067;-77
2024/02/06 09:36:42;;;;;;;26.08;5.70;;;11.90;99.90;;;;;;5033194;28;20079;-77
2024/02/06 09:39:09;;;;;;;19.58;4.28;;;11.90;99.90;;;;;;5030930;28;20021;-77
2024/02/06 09:41:39;;;;;;;21.88;5.53;;;12.00;99.90;;;;;;5034958;28;20045;-77
2024/02/06 09:44:06;;;;;;;26.40;5.20;;;12.00;99.90;;;;;;5026127;28;20064;-77
2024/02/06 09:46:32;;;;;;;29.80;5.03;;;11.90;99.90;;;;;;5035746;28;20522;-77
2024/02/06 09:48:58;;;;;;;18.23;4.20;;;12.00;99.90;;;;;;5028885;28;20029;-77
2024/02/06 09:51:25;;;;;;;23.77;5.35;;;12.00;99.90;;;;;;5043472;28;20464;-78
2024/02/06 09:53:57;;;;;;;27.08;5.70;;;12.00;99.90;;;;;;5037445;28;20033;-77
2024/02/06 09:56:24;;;;;;;23.60;5.65;;;12.00;99.90;;;;;;5029478;28;20029;-78
2024/02/06 09:58:50;;;;;;;23.90;5.10;;;12.00;99.90;;;;;;5022189;28;20037;-78
2024/02/06 10:01:17;;;;;;;18.20;4.32;;;12.00;99.90;;;;;;5028482;28;20032;-78
2024/02/06 10:03:47;;;;;;;25.05;5.55;;;11.90;99.90;;;;;;5027737;28;20517;-78
2024/02/06 10:06:17;;;;;;;30.73;5.72;;;12.00;99.90;;;;;;5037573;28;20130;-78
2024/02/06 10:08:47;;;;;;;24.15;4.85;;;12.00;99.90;;;;;;5039764;28;20033;-77
2024/02/06 10:11:13;;;;;;;23.85;4.80;;;12.10;99.90;;;;;;5044873;28;20036;-77
2024/02/06 10:13:39;;;;;;;31.20;6.70;;;12.00;99.90;;;;;;5039627;28;20099;-78
2024/02/06 10:16:05;;;;;;;24.60;5.90;;;11.90;99.90;;;;;;5031569;28;20053;-78
2024/02/06 10:18:31;;;;;;;21.45;5.60;;;12.00;99.90;;;;;;5030437;28;20037;-78
2024/02/06 10:20:57;;;;;;;27.27;4.80;;;12.00;99.90;;;;;;5039391;28;20032;-78
2024/02/06 10:23:22;;;;;;;24.00;4.90;;;12.10;99.90;;;;;;5031234;28;20491;-78
2024/02/06 10:26:01;;;;;;;26.35;5.70;;;12.00;99.90;;;;;;5032084;28;20469;-78
2024/02/06 10:28:27;;;;;;;22.65;4.78;;;12.10;99.90;;;;;;5032185;28;20112;-78
2024/02/06 10:30:52;;;;;;;19.17;5.63;;;12.10;99.90;;;;;;5032302;28;20121;-78
2024/02/06 10:33:19;;;;;;;27.83;5.70;;;12.10;99.90;;;;;;5026042;28;20032;-78
2024/02/06 10:35:45;;;;;;;34.53;6.70;;;12.20;99.90;;;;;;5041074;28;20051;-78
2024/02/06 10:38:11;;;;;;;28.83;5.40;;;12.10;99.90;;;;;;5048684;28;20123;-78
2024/02/06 10:40:41;;;;;;;27.02;6.15;;;12.10;99.90;;;;;;5039779;28;20100;-78
2024/02/06 10:43:08;;;;;;;28.73;5.60;;;12.20;99.90;;;;;;5034963;28;20469;-77
2024/02/06 10:45:34;;;;;;;22.73;5.45;;;12.10;99.90;;;;;;5033536;28;20037;-78
2024/02/06 10:48:02;;;;;;;27.00;5.47;;;12.20;99.90;;;;;;5034747;28;20041;-78
2024/02/06 10:50:28;;;;;;;27.08;4.88;;;12.20;99.90;;;;;;5037256;28;20048;-78
2024/02/06 10:52:54;;;;;;;24.25;5.50;;;12.10;99.90;;;;;;5029038;28;20037;-78
2024/02/06 10:55:23;;;;;;;22.65;6.13;;;12.30;99.90;;;;;;5036485;28;20045;-78
2024/02/06 10:58:06;;;;;;;11.73;4.15;;;12.20;99.90;;;;;;5028351;28;20053;-77
2024/02/06 11:00:34;;;;;;;22.58;6.22;;;12.30;99.90;;;;;;5031155;28;20018;-78
2024/02/06 11:03:03;;;;;;;24.83;5.35;;;12.30;99.90;;;;;;5032902;28;20041;-78
2024/02/06 11:05:44;;;;;;;29.55;6.00;;;12.30;99.90;;;;;;5046101;28;20029;-77
2024/02/06 11:08:15;;;;;;;33.03;5.85;;;12.40;99.90;;;;;;5039765;28;20048;-79
2024/02/06 11:10:53;;;;;;;25.73;5.68;;;12.50;99.90;;;;;;5031066;28;20460;-78
2024/02/06 11:13:27;;;;;;;32.33;5.68;;;12.40;99.90;;;;;;5028734;28;20150;-76
2024/02/06 11:15:53;;;;;;;27.73;6.03;;;12.40;99.90;;;;;;5029909;28;20137;-77
2024/02/06 11:18:21;;;;;;;25.58;5.70;;;12.30;99.90;;;;;;5037775;28;20128;-77
2024/02/06 11:20:52;;;;;;;27.10;6.40;;;12.30;99.90;;;;;;5022449;28;20060;-77
2024/02/06 11:23:18;;;;;;;26.05;5.90;;;12.40;99.90;;;;;;5041494;28;20033;-77
2024/02/06 11:25:48;;;;;;;21.13;4.78;;;12.30;99.90;;;;;;5038651;28;20039;-77
2024/02/06 11:28:15;;;;;;;23.98;5.07;;;12.30;99.90;;;;;;5020318;28;20040;-77
2024/02/06 11:30:42;;;;;;;26.98;5.75;;;12.30;99.90;;;;;;5019752;28;20146;-77
2024/02/06 11:33:09;;;;;;;25.67;5.57;;;12.30;99.90;;;;;;5037392;28;20029;-77
2024/02/06 11:35:35;;;;;;;16.83;4.35;;;12.30;99.90;;;;;;5037717;28;20041;-77
2024/02/06 11:38:04;;;;;;;27.52;5.93;;;12.30;99.90;;;;;;5026370;28;20184;-77
2024/02/06 11:40:32;;;;;;;24.00;5.50;;;12.30;99.90;;;;;;5033565;28;20041;-77
2024/02/06 11:43:06;;;;;;;21.88;5.15;;;12.30;99.90;;;;;;5047591;28;20041;-77
2024/02/06 11:45:35;;;;;;;20.67;5.15;;;12.30;99.90;;;;;;5048576;28;20033;-77
2024/02/06 11:48:08;;;;;;;29.52;6.00;;;12.40;99.90;;;;;;5049701;28;20384;-76
2024/02/06 11:50:42;;;;;;;24.25;5.47;;;12.40;99.90;;;;;;5031285;28;20039;-76
2024/02/06 11:53:13;;;;;;;19.40;4.72;;;12.50;99.90;;;;;;5047210;28;20472;-77
2024/02/06 11:55:39;;;;;;;26.52;5.07;;;12.40;99.90;;;;;;5030766;28;20060;-76
2024/02/06 11:58:05;;;;;;;22.45;5.30;;;12.50;99.90;;;;;;5037719;28;20052;-77
2024/02/06 12:00:31;;;;;;;27.58;5.40;;;12.50;99.90;;;;;;5042500;28;20556;-77
2024/02/06 12:02:58;;;;;;;25.25;5.28;;;12.50;99.90;;;;;;5038613;28;20058;-76
2024/02/06 12:05:24;;;;;;;20.58;5.00;;;12.50;99.90;;;;;;5027623;28;20024;-77
2024/02/06 12:07:56;;;;;;;22.42;6.32;;;12.50;99.90;;;;;;5040924;28;20469;-77
2024/02/06 12:10:26;;;;;;;26.27;6.25;;;12.50;99.90;;;;;;5028932;28;20025;-77
2024/02/06 12:12:54;;;;;;;23.98;5.10;;;12.50;99.90;;;;;;5028343;28;20402;-76
2024/02/06 12:15:21;;;;;;;22.10;5.68;;;12.50;99.90;;;;;;5028789;28;20025;-76
2024/02/06 12:17:48;;;;;;;27.50;5.63;;;12.50;99.90;;;;;;5028828;28;20128;-78
2024/02/06 12:20:19;;;;;;;22.10;4.75;;;12.50;99.90;;;;;;5027205;28;20030;-77
2024/02/06 12:23:08;;;;;;;26.35;6.10;;;12.60;99.90;;;;;;5018186;28;20148;-77
2024/02/06 12:25:40;;;;;;;26.13;6.03;;;12.60;99.90;;;;;;5030069;28;20041;-80
2024/02/06 12:28:12;;;;;;;25.83;5.38;;;12.60;99.90;;;;;;5041784;28;20036;-77
2024/02/06 12:30:43;;;;;;;25.20;5.03;;;12.60;99.90;;;;;;5029647;28;20042;-77
2024/02/06 12:33:09;;;;;;;21.08;5.65;;;12.60;99.90;;;;;;5042035;28;20033;-77